Time;durP1;ratioP1;P1;durP2;ratioP2;P2;SDS_P1;SDS_P2;PMS_P1;PMS_P2;Temp;Humidity;BMP_temperature;BMP_pressure;BME280_temperature;BME280_humidity;BME280_pressure;Samples;Min_cycle;Max_cycle;Signal;HPM_P1;HPM_P2
2022/07/08 00:00:25;;;;;;;26.95;10.57;;;13.00;99.90;;;;;;4962412;28;20098;-78
2022/07/08 00:02:50;;;;;;;28.38;9.48;;;13.00;99.90;;;;;;4962656;28;20073;-78
2022/07/08 00:05:16;;;;;;;22.52;8.70;;;12.90;99.90;;;;;;4960746;28;20779;-78
2022/07/08 00:07:42;;;;;;;21.85;8.45;;;12.90;99.90;;;;;;4962254;28;20035;-78
2022/07/08 00:10:08;;;;;;;21.02;7.35;;;12.90;99.90;;;;;;4961947;28;20030;-79
2022/07/08 00:12:34;;;;;;;13.38;6.57;;;12.90;99.90;;;;;;4960591;28;20057;-77
2022/07/08 00:15:00;;;;;;;16.27;6.65;;;12.90;99.90;;;;;;4959358;28;20976;-77
2022/07/08 00:17:27;;;;;;;15.25;6.65;;;12.80;99.90;;;;;;4941174;29;20039;-78
2022/07/08 00:19:53;;;;;;;14.30;6.40;;;12.80;99.90;;;;;;4959325;28;20030;-78
2022/07/08 00:22:18;;;;;;;11.10;5.88;;;12.80;99.90;;;;;;4962343;28;20114;-78
2022/07/08 00:24:44;;;;;;;14.95;5.75;;;12.70;99.90;;;;;;4958877;28;20062;-78
2022/07/08 00:27:10;;;;;;;14.25;5.40;;;12.70;99.90;;;;;;4959051;28;20023;-78
2022/07/08 00:29:36;;;;;;;15.20;6.38;;;12.60;99.90;;;;;;4961176;28;20137;-78
2022/07/08 00:32:02;;;;;;;14.48;7.60;;;12.60;99.90;;;;;;4961384;28;20125;-78
2022/07/08 00:34:28;;;;;;;16.40;7.95;;;12.60;99.90;;;;;;4961144;28;20334;-78
2022/07/08 00:36:54;;;;;;;16.52;9.05;;;12.60;99.90;;;;;;4961901;28;20740;-78
2022/07/08 00:39:19;;;;;;;19.48;8.80;;;12.50;99.90;;;;;;4961034;28;20144;-78
2022/07/08 00:41:45;;;;;;;16.65;9.25;;;12.50;99.90;;;;;;4961076;28;20031;-78
2022/07/08 00:44:11;;;;;;;21.02;8.13;;;12.50;99.90;;;;;;4959562;28;20417;-78
2022/07/08 00:46:37;;;;;;;21.88;9.15;;;12.50;99.90;;;;;;4961261;28;20041;-78
2022/07/08 00:49:02;;;;;;;22.60;9.57;;;12.50;99.90;;;;;;4943963;28;20054;-78
2022/07/08 00:51:28;;;;;;;20.33;9.65;;;12.50;99.90;;;;;;4961365;28;20045;-78
2022/07/08 00:53:54;;;;;;;21.52;8.88;;;12.50;99.90;;;;;;4961093;28;20031;-78
2022/07/08 00:56:21;;;;;;;19.13;9.77;;;12.50;99.90;;;;;;4960015;28;20931;-78
2022/07/08 00:58:48;;;;;;;20.70;8.40;;;12.50;99.90;;;;;;4961378;28;20109;-78
2022/07/08 01:01:15;;;;;;;17.67;8.52;;;12.50;99.90;;;;;;4961635;28;20059;-78
2022/07/08 01:03:42;;;;;;;18.25;9.13;;;12.50;99.90;;;;;;4959270;28;20077;-77
2022/07/08 01:06:08;;;;;;;18.92;8.32;;;12.40;99.90;;;;;;4934819;29;20050;-78
2022/07/08 01:08:33;;;;;;;14.40;8.65;;;12.40;99.90;;;;;;4941154;29;20632;-78
2022/07/08 01:10:59;;;;;;;15.45;7.38;;;12.40;99.90;;;;;;4960118;28;22685;-78
2022/07/08 01:13:25;;;;;;;12.57;7.00;;;12.40;99.90;;;;;;4961500;28;20525;-78
2022/07/08 01:15:51;;;;;;;9.20;4.90;;;12.40;99.90;;;;;;4961243;28;20038;-78
2022/07/08 01:18:26;;;;;;;7.68;5.05;;;12.40;99.90;;;;;;4959440;28;20023;-77
2022/07/08 01:20:52;;;;;;;11.77;4.72;;;12.40;99.90;;;;;;4953812;28;20079;-77
2022/07/08 01:23:19;;;;;;;10.43;4.35;;;12.30;99.90;;;;;;4936981;28;20092;-77
2022/07/08 01:25:46;;;;;;;11.00;4.70;;;12.20;99.90;;;;;;4961370;28;20070;-78
2022/07/08 01:28:12;;;;;;;11.43;4.28;;;12.10;99.90;;;;;;4961042;28;20076;-78
2022/07/08 01:30:37;;;;;;;12.68;4.70;;;12.10;99.90;;;;;;4961202;28;20035;-78
2022/07/08 01:33:03;;;;;;;14.05;5.05;;;12.10;99.90;;;;;;4961234;28;20023;-76
2022/07/08 01:35:29;;;;;;;11.07;4.68;;;12.10;99.90;;;;;;4957265;28;20081;-77
2022/07/08 01:37:55;;;;;;;10.80;5.38;;;12.10;99.90;;;;;;4963623;28;20069;-77
2022/07/08 01:40:21;;;;;;;13.20;5.40;;;12.00;99.90;;;;;;4949990;28;20027;-77
2022/07/08 01:42:46;;;;;;;14.07;4.82;;;12.00;99.90;;;;;;4957655;28;20129;-77
2022/07/08 01:45:12;;;;;;;15.85;5.43;;;12.00;99.90;;;;;;4959771;28;20039;-77
2022/07/08 01:47:38;;;;;;;18.10;5.65;;;12.00;99.90;;;;;;4956697;28;20051;-76
2022/07/08 01:50:05;;;;;;;11.93;5.38;;;11.90;99.90;;;;;;4960881;28;20346;-77
2022/07/08 01:52:30;;;;;;;11.60;4.45;;;11.90;99.90;;;;;;4951666;28;20035;-77
2022/07/08 01:54:56;;;;;;;8.30;5.00;;;11.80;99.90;;;;;;4939832;28;20057;-76
2022/07/08 01:57:23;;;;;;;8.90;4.70;;;11.80;99.90;;;;;;4956952;28;20089;-77
2022/07/08 01:59:50;;;;;;;9.82;4.53;;;11.70;99.90;;;;;;4956775;28;20023;-77
2022/07/08 02:02:18;;;;;;;10.85;4.95;;;11.60;99.90;;;;;;4956534;28;20057;-77
2022/07/08 02:04:44;;;;;;;15.10;5.00;;;11.60;99.90;;;;;;4959431;28;20182;-76
2022/07/08 02:07:10;;;;;;;9.48;5.05;;;11.50;99.90;;;;;;4960679;28;20451;-77
2022/07/08 02:09:37;;;;;;;13.70;5.35;;;11.50;99.90;;;;;;4944755;28;20042;-77
2022/07/08 02:12:19;;;;;;;13.90;5.90;;;11.50;99.90;;;;;;4946124;28;20805;-77
2022/07/08 02:14:50;;;;;;;7.85;4.93;;;11.50;99.90;;;;;;4962424;28;20043;-76
2022/07/08 02:17:18;;;;;;;17.88;5.63;;;11.50;99.90;;;;;;4962921;28;20071;-77
2022/07/08 02:19:45;;;;;;;16.60;5.65;;;11.50;99.90;;;;;;4962376;28;20042;-77
2022/07/08 02:22:12;;;;;;;13.05;5.40;;;11.50;99.90;;;;;;4957283;28;20411;-77
2022/07/08 02:24:38;;;;;;;14.60;5.25;;;11.40;99.90;;;;;;4963074;28;20097;-77
2022/07/08 02:27:05;;;;;;;16.23;5.88;;;11.40;99.90;;;;;;4963023;28;20035;-77
2022/07/08 02:29:31;;;;;;;13.02;5.80;;;11.30;99.90;;;;;;4962037;28;20029;-77
2022/07/08 02:31:57;;;;;;;11.27;5.82;;;11.30;99.90;;;;;;4948056;28;20027;-76
2022/07/08 02:34:23;;;;;;;13.02;5.72;;;11.30;99.90;;;;;;4961343;28;20042;-77
2022/07/08 02:36:49;;;;;;;15.73;5.82;;;11.20;99.90;;;;;;4962798;28;20054;-77
2022/07/08 02:39:15;;;;;;;17.45;6.63;;;11.20;99.90;;;;;;4962218;28;20041;-77
2022/07/08 02:41:41;;;;;;;16.70;5.70;;;11.20;99.90;;;;;;4962973;28;20027;-77
2022/07/08 02:44:07;;;;;;;13.77;6.35;;;11.20;99.90;;;;;;4963043;28;20041;-77
2022/07/08 02:46:33;;;;;;;12.90;5.85;;;11.10;99.90;;;;;;4963688;28;20763;-77
2022/07/08 02:48:59;;;;;;;11.93;6.13;;;11.10;99.90;;;;;;4962997;28;20137;-77
2022/07/08 02:51:25;;;;;;;12.52;6.30;;;11.00;99.90;;;;;;4961318;28;20407;-77
2022/07/08 02:53:50;;;;;;;8.05;5.53;;;11.00;99.90;;;;;;4963311;28;20039;-79
2022/07/08 02:56:16;;;;;;;12.18;5.80;;;11.00;99.90;;;;;;4960132;28;20073;-78
2022/07/08 02:58:42;;;;;;;11.32;5.20;;;10.90;99.90;;;;;;4961144;28;20035;-78
2022/07/08 03:01:08;;;;;;;8.55;5.32;;;10.90;99.90;;;;;;4960338;28;20066;-79
2022/07/08 03:03:33;;;;;;;8.73;5.13;;;10.90;99.90;;;;;;4957820;28;20097;-79
2022/07/08 03:05:59;;;;;;;10.23;6.18;;;10.80;99.90;;;;;;4946292;28;20769;-79
2022/07/08 03:08:25;;;;;;;16.83;6.57;;;10.80;99.90;;;;;;4949862;28;20584;-78
2022/07/08 03:10:51;;;;;;;12.65;6.43;;;10.70;99.90;;;;;;4962645;28;20046;-79
2022/07/08 03:13:16;;;;;;;12.32;6.43;;;10.80;99.90;;;;;;4962642;28;20114;-79
2022/07/08 03:15:42;;;;;;;12.65;5.78;;;10.80;99.90;;;;;;4962460;28;20035;-79
2022/07/08 03:18:08;;;;;;;10.07;6.40;;;10.70;99.90;;;;;;4960732;28;20035;-79
2022/07/08 03:20:34;;;;;;;11.35;5.97;;;10.70;99.90;;;;;;4945362;28;20039;-79
2022/07/08 03:23:00;;;;;;;12.60;5.57;;;10.70;99.90;;;;;;4929826;29;20402;-79
2022/07/08 03:25:26;;;;;;;11.27;5.72;;;10.60;99.90;;;;;;4956798;28;20035;-79
2022/07/08 03:27:52;;;;;;;10.02;6.20;;;10.60;99.90;;;;;;4963256;28;20033;-79
2022/07/08 03:30:18;;;;;;;14.27;6.22;;;10.60;99.90;;;;;;4961719;28;20356;-78
2022/07/08 03:32:43;;;;;;;12.70;6.38;;;10.50;99.90;;;;;;4975297;28;20065;-79
2022/07/08 03:35:09;;;;;;;10.63;5.97;;;10.50;99.90;;;;;;4961527;28;20043;-79
2022/07/08 03:37:40;;;;;;;11.13;5.13;;;10.50;99.90;;;;;;4962361;28;20411;-78
2022/07/08 03:42:50;;;;;;;10.60;4.28;;;10.40;99.90;;;;;;4961584;28;20222;-79
2022/07/08 03:45:16;;;;;;;12.20;6.20;;;10.40;99.90;;;;;;4960567;28;20168;-78
2022/07/08 03:47:42;;;;;;;11.48;5.80;;;10.40;99.90;;;;;;4962495;28;20058;-78
2022/07/08 03:50:08;;;;;;;8.68;5.38;;;10.40;99.90;;;;;;4961792;28;20128;-78
2022/07/08 03:52:34;;;;;;;9.73;5.82;;;10.40;99.90;;;;;;4960403;28;20041;-79
2022/07/08 03:54:59;;;;;;;8.52;5.40;;;10.40;99.90;;;;;;4961660;28;20038;-79
2022/07/08 03:57:25;;;;;;;10.68;6.30;;;10.40;99.90;;;;;;4942449;29;20407;-79
2022/07/08 03:59:51;;;;;;;10.10;5.63;;;10.40;99.90;;;;;;4951399;28;20031;-79
2022/07/08 04:02:17;;;;;;;10.55;5.18;;;10.40;99.90;;;;;;4962217;28;20487;-79
2022/07/08 04:04:42;;;;;;;9.30;5.65;;;10.40;99.90;;;;;;4962132;28;20097;-77
2022/07/08 04:07:08;;;;;;;10.00;5.47;;;10.40;99.90;;;;;;4960111;28;20031;-79
2022/07/08 04:09:34;;;;;;;6.93;4.05;;;10.40;99.90;;;;;;4961976;28;20045;-79
2022/07/08 04:11:59;;;;;;;8.32;5.38;;;10.40;99.90;;;;;;4962254;28;20034;-77
2022/07/08 04:14:25;;;;;;;9.88;5.15;;;10.40;99.90;;;;;;4950164;28;20082;-79
2022/07/08 04:16:51;;;;;;;7.68;4.70;;;10.40;99.90;;;;;;4959974;28;20030;-79
2022/07/08 04:19:16;;;;;;;10.13;4.57;;;10.50;99.90;;;;;;4959490;28;20113;-79
2022/07/08 04:21:42;;;;;;;8.85;4.53;;;10.40;99.90;;;;;;4960645;28;20042;-79
2022/07/08 04:24:08;;;;;;;8.40;4.20;;;10.40;99.90;;;;;;4961430;28;20358;-78
2022/07/08 04:26:33;;;;;;;9.10;4.47;;;10.40;99.90;;;;;;4960559;28;20038;-76
2022/07/08 04:29:00;;;;;;;7.32;4.30;;;10.40;99.90;;;;;;4961074;28;20045;-79
2022/07/08 04:31:26;;;;;;;11.68;5.25;;;10.50;99.90;;;;;;4950800;28;20030;-79
2022/07/08 04:33:53;;;;;;;12.80;4.75;;;10.50;99.90;;;;;;4942078;28;20490;-79
2022/07/08 04:36:23;;;;;;;12.07;4.45;;;10.60;99.90;;;;;;4930737;28;20031;-78
2022/07/08 04:38:49;;;;;;;11.45;5.57;;;10.60;99.90;;;;;;4953613;28;20030;-79
2022/07/08 04:41:15;;;;;;;10.23;5.45;;;10.70;99.90;;;;;;4960356;28;20085;-79
2022/07/08 04:43:41;;;;;;;10.27;5.78;;;10.80;99.90;;;;;;4960635;28;20035;-79
2022/07/08 04:46:06;;;;;;;9.45;5.40;;;10.90;99.90;;;;;;4960322;28;20026;-79
2022/07/08 04:48:32;;;;;;;8.65;5.55;;;10.90;99.90;;;;;;4961362;28;20080;-77
2022/07/08 04:50:58;;;;;;;7.95;5.72;;;11.00;99.90;;;;;;4960603;28;20037;-79
2022/07/08 04:53:24;;;;;;;11.25;6.38;;;11.10;99.90;;;;;;4944462;28;20035;-79
2022/07/08 04:55:50;;;;;;;8.65;5.68;;;11.10;99.90;;;;;;4960814;28;21863;-78
2022/07/08 04:58:15;;;;;;;8.88;6.03;;;11.20;99.90;;;;;;4961904;28;20034;-79
2022/07/08 05:00:41;;;;;;;8.73;5.97;;;11.30;99.90;;;;;;4941942;28;20034;-76
2022/07/08 05:03:07;;;;;;;9.35;6.13;;;11.30;99.90;;;;;;4959738;28;20023;-79
2022/07/08 05:05:34;;;;;;;10.25;6.22;;;11.40;99.90;;;;;;4957698;28;20035;-77
2022/07/08 05:08:00;;;;;;;11.27;6.55;;;11.50;99.90;;;;;;4959244;28;20050;-79
2022/07/08 05:10:27;;;;;;;8.93;5.47;;;11.70;99.90;;;;;;4957761;28;20033;-79
2022/07/08 05:12:54;;;;;;;6.55;4.15;;;11.90;99.90;;;;;;4961050;28;20050;-78
2022/07/08 05:15:20;;;;;;;7.68;3.97;;;12.00;99.90;;;;;;4959303;28;20570;-79
2022/07/08 05:17:47;;;;;;;6.97;4.22;;;12.10;99.90;;;;;;4958598;28;20037;-79
2022/07/08 05:20:13;;;;;;;8.25;4.10;;;12.30;99.90;;;;;;4957080;28;20553;-77
2022/07/08 05:22:40;;;;;;;9.15;4.57;;;12.50;99.90;;;;;;4961394;28;20538;-79
2022/07/08 05:25:08;;;;;;;18.63;5.57;;;12.60;99.90;;;;;;4940847;28;20081;-79
2022/07/08 05:27:34;;;;;;;20.45;6.55;;;12.80;99.90;;;;;;4951600;28;20042;-79
2022/07/08 05:30:00;;;;;;;18.27;6.35;;;12.80;99.90;;;;;;4958505;28;20494;-78
2022/07/08 05:32:26;;;;;;;13.82;6.40;;;12.80;99.90;;;;;;4958748;28;20043;-79
2022/07/08 05:34:52;;;;;;;13.07;6.35;;;12.80;99.90;;;;;;4940397;28;20544;-79
2022/07/08 05:37:18;;;;;;;14.27;6.32;;;12.70;99.90;;;;;;4944730;28;20140;-79
2022/07/08 05:39:44;;;;;;;16.60;7.97;;;12.80;99.90;;;;;;4945156;28;20042;-79
2022/07/08 05:42:10;;;;;;;13.75;7.20;;;12.80;99.90;;;;;;4942393;28;20572;-79
2022/07/08 05:44:37;;;;;;;9.45;6.57;;;12.70;99.90;;;;;;4960979;28;20113;-79
2022/07/08 05:47:09;;;;;;;14.35;7.95;;;12.60;99.90;;;;;;4964816;28;20030;-78
2022/07/08 05:49:36;;;;;;;14.45;7.75;;;12.60;99.90;;;;;;4965739;28;20662;-79
2022/07/08 05:52:03;;;;;;;15.20;7.90;;;12.60;99.90;;;;;;4947164;28;20116;-79
2022/07/08 05:54:30;;;;;;;10.48;7.15;;;12.60;99.90;;;;;;4960295;28;20054;-78
2022/07/08 05:56:55;;;;;;;16.13;8.70;;;12.60;99.90;;;;;;4946844;28;20026;-79
2022/07/08 05:59:21;;;;;;;15.98;8.55;;;12.70;99.90;;;;;;4957560;28;20129;-79
2022/07/08 06:01:47;;;;;;;22.13;9.70;;;12.80;99.90;;;;;;4960046;28;20038;-78
2022/07/08 06:04:12;;;;;;;18.80;8.68;;;12.90;99.90;;;;;;4948513;28;20042;-79
2022/07/08 06:06:38;;;;;;;19.15;9.98;;;13.00;99.90;;;;;;4952556;28;20062;-79
2022/07/08 06:09:04;;;;;;;17.38;10.18;;;13.10;99.90;;;;;;4938141;28;20770;-78
2022/07/08 06:11:30;;;;;;;607.65;441.92;;;13.20;99.90;;;;;;4959072;28;20031;-79
2022/07/08 06:13:55;;;;;;;169.77;106.28;;;13.30;99.90;;;;;;4958393;28;20130;-79
2022/07/08 06:16:21;;;;;;;52.95;30.95;;;13.50;99.90;;;;;;4955513;28;20034;-79
2022/07/08 06:18:47;;;;;;;27.98;20.50;;;13.50;99.90;;;;;;4960267;28;20038;-79
2022/07/08 06:21:13;;;;;;;20.88;15.63;;;13.70;99.90;;;;;;4958556;28;20545;-80
2022/07/08 06:23:38;;;;;;;21.85;13.73;;;13.70;99.90;;;;;;4954382;28;20034;-79
2022/07/08 06:26:05;;;;;;;27.77;13.10;;;13.80;99.90;;;;;;4931508;28;20042;-79
2022/07/08 06:28:31;;;;;;;20.95;12.73;;;14.00;99.90;;;;;;4950641;28;20065;-80
2022/07/08 06:30:57;;;;;;;20.20;12.35;;;14.00;99.90;;;;;;4951709;28;20027;-80
2022/07/08 06:33:22;;;;;;;18.77;13.52;;;14.10;99.90;;;;;;4953436;28;20635;-79
2022/07/08 06:35:48;;;;;;;19.95;13.02;;;14.30;99.90;;;;;;4936835;28;20208;-79
2022/07/08 06:38:14;;;;;;;22.48;13.40;;;14.40;99.90;;;;;;4957964;28;20038;-79
2022/07/08 06:40:40;;;;;;;18.17;12.10;;;14.40;99.90;;;;;;4953715;28;20458;-82
2022/07/08 06:43:05;;;;;;;19.65;14.43;;;14.50;99.90;;;;;;4960878;28;20035;-81
2022/07/08 06:45:32;;;;;;;19.83;13.85;;;14.60;99.90;;;;;;4960653;28;20118;-82
2022/07/08 06:48:02;;;;;;;18.05;10.70;;;14.70;99.90;;;;;;4961656;28;20225;-82
2022/07/08 06:50:29;;;;;;;16.92;11.05;;;14.80;99.90;;;;;;4958030;28;20550;-82
2022/07/08 06:52:55;;;;;;;16.33;11.32;;;14.90;99.90;;;;;;4953918;28;20768;-82
2022/07/08 06:55:22;;;;;;;16.35;11.82;;;15.00;99.90;;;;;;4958491;28;20498;-81
2022/07/08 06:57:47;;;;;;;17.00;10.98;;;15.10;99.90;;;;;;4953020;28;20038;-82
2022/07/08 07:00:14;;;;;;;26.10;18.67;;;15.20;99.90;;;;;;4933129;28;20031;-82
2022/07/08 07:02:40;;;;;;;15.73;11.43;;;15.30;99.90;;;;;;4948404;28;20034;-81
2022/07/08 07:05:07;;;;;;;11.10;9.90;;;15.40;99.90;;;;;;4611401;28;9999921;-81
2022/07/08 07:07:33;;;;;;;12.75;11.43;;;15.50;99.90;;;;;;4954216;28;20588;-81
2022/07/08 07:09:58;;;;;;;15.18;10.23;;;15.60;99.90;;;;;;4952406;28;20026;-81
2022/07/08 07:12:24;;;;;;;14.98;12.30;;;15.90;99.90;;;;;;4953220;28;20105;-81
2022/07/08 07:14:51;;;;;;;14.02;12.23;;;16.00;99.90;;;;;;4957646;28;20066;-81
2022/07/08 07:17:18;;;;;;;17.25;12.60;;;16.10;99.90;;;;;;4967433;28;20030;-81
2022/07/08 07:19:44;;;;;;;16.67;10.80;;;16.30;99.90;;;;;;4954283;28;20058;-81
2022/07/08 07:22:10;;;;;;;19.20;10.60;;;16.30;99.90;;;;;;4920849;28;20186;-81
2022/07/08 07:24:36;;;;;;;18.95;11.77;;;16.40;99.90;;;;;;4947883;28;20896;-81
2022/07/08 07:27:02;;;;;;;13.63;10.73;;;16.50;99.90;;;;;;4951372;28;20869;-81
2022/07/08 07:29:28;;;;;;;137.00;96.78;;;16.70;99.90;;;;;;4951706;28;20046;-83
2022/07/08 07:31:53;;;;;;;16.45;11.75;;;16.90;99.90;;;;;;4949167;28;20026;-78
2022/07/08 07:34:19;;;;;;;8.98;8.07;;;17.10;99.90;;;;;;4952463;28;20406;-79
2022/07/08 07:36:45;;;;;;;12.93;8.23;;;18.80;99.90;;;;;;4958487;28;20054;-79
2022/07/08 07:39:11;;;;;;;9.40;6.65;;;21.50;99.90;;;;;;4953006;28;20035;-79
2022/07/08 07:41:38;;;;;;;7.57;5.72;;;22.60;99.90;;;;;;4955887;28;20088;-80
2022/07/08 07:44:04;;;;;;;9.38;6.57;;;24.30;99.90;;;;;;4954067;28;20031;-78
2022/07/08 07:46:30;;;;;;;7.05;4.90;;;26.50;95.30;;;;;;4954670;28;20105;-80
2022/07/08 07:48:56;;;;;;;8.77;5.70;;;27.90;90.90;;;;;;4955715;28;20134;-78
2022/07/08 07:51:22;;;;;;;6.72;5.20;;;31.00;65.40;;;;;;4958607;28;20410;-78
2022/07/08 07:53:48;;;;;;;5.68;4.90;;;32.70;53.30;;;;;;4973160;28;20485;-77
2022/07/08 07:56:14;;;;;;;6.75;4.80;;;34.40;46.90;;;;;;4960438;28;20034;-78
2022/07/08 07:58:40;;;;;;;6.32;5.35;;;35.20;43.90;;;;;;4952145;28;20030;-77
2022/07/08 08:01:06;;;;;;;9.60;4.57;;;35.90;40.90;;;;;;4964302;28;20033;-78
2022/07/08 08:03:32;;;;;;;6.18;4.82;;;36.90;40.50;;;;;;4959771;28;20026;-80
2022/07/08 08:05:58;;;;;;;9.07;4.80;;;38.10;37.10;;;;;;4956512;28;20183;-81
2022/07/08 08:08:24;;;;;;;5.10;4.43;;;39.20;36.40;;;;;;4961354;28;20074;-80
2022/07/08 08:10:51;;;;;;;4.88;4.43;;;38.70;34.70;;;;;;4934172;28;20130;-80
2022/07/08 08:13:18;;;;;;;7.90;4.22;;;39.10;35.70;;;;;;4943291;28;20180;-80
2022/07/08 08:15:44;;;;;;;5.45;4.55;;;40.60;35.50;;;;;;4955673;28;20365;-80
2022/07/08 08:18:09;;;;;;;6.55;4.55;;;40.50;33.60;;;;;;4940473;28;20867;-80
2022/07/08 08:20:36;;;;;;;7.60;4.95;;;39.80;33.60;;;;;;4956316;28;20031;-80
2022/07/08 08:23:03;;;;;;;7.97;4.43;;;40.90;34.00;;;;;;4947724;28;20023;-81
2022/07/08 08:25:29;;;;;;;9.45;4.35;;;39.40;32.30;;;;;;4939838;28;20030;-80
2022/07/08 08:27:56;;;;;;;11.60;4.40;;;38.80;34.10;;;;;;4966313;28;20032;-81
2022/07/08 08:30:22;;;;;;;9.00;5.00;;;39.50;33.70;;;;;;4956945;28;20054;-81
2022/07/08 08:32:48;;;;;;;5.05;4.20;;;39.10;33.60;;;;;;4960306;28;20557;-80
2022/07/08 08:35:14;;;;;;;8.65;4.20;;;40.70;32.90;;;;;;4938506;28;20466;-83
2022/07/08 08:37:40;;;;;;;16.73;8.23;;;40.40;33.10;;;;;;4938293;28;20062;-84
2022/07/08 08:40:09;;;;;;;10.32;5.55;;;40.00;32.70;;;;;;4956120;28;20030;-84
2022/07/08 08:42:36;;;;;;;6.53;3.53;;;41.50;33.40;;;;;;4941846;28;20031;-84
2022/07/08 08:45:03;;;;;;;5.63;3.88;;;41.30;31.80;;;;;;4952675;28;20131;-84
2022/07/08 08:47:30;;;;;;;7.15;4.85;;;39.60;32.30;;;;;;4943564;28;20202;-84
2022/07/08 08:49:57;;;;;;;6.45;3.92;;;38.90;33.90;;;;;;4958850;28;20035;-84
2022/07/08 08:52:24;;;;;;;6.05;4.28;;;38.60;32.90;;;;;;4959468;28;20150;-84
2022/07/08 08:54:51;;;;;;;9.00;4.90;;;39.30;33.80;;;;;;4941001;28;20073;-88
2022/07/08 08:57:18;;;;;;;5.05;3.70;;;39.90;31.50;;;;;;4959925;28;20129;-84
2022/07/08 08:59:46;;;;;;;8.52;5.30;;;40.20;33.20;;;;;;4960034;28;20065;-85
2022/07/08 09:02:12;;;;;;;8.00;4.90;;;39.80;32.00;;;;;;4953736;28;20027;-86
2022/07/08 09:04:38;;;;;;;6.78;3.10;;;39.60;31.60;;;;;;4955904;28;20034;-84
2022/07/08 09:07:05;;;;;;;6.38;4.85;;;38.90;32.80;;;;;;4960754;28;20027;-83
2022/07/08 09:09:31;;;;;;;8.18;5.28;;;39.10;32.70;;;;;;4959943;28;20049;-84
2022/07/08 09:11:56;;;;;;;5.57;3.97;;;38.20;34.60;;;;;;4961756;28;20282;-84
2022/07/08 09:14:23;;;;;;;6.05;3.40;;;37.50;32.90;;;;;;4959924;28;20089;-84
2022/07/08 09:17:17;;;;;;;4.68;3.33;;;37.30;34.30;;;;;;4962070;28;20169;-84
2022/07/08 09:19:44;;;;;;;4.95;4.00;;;38.40;35.70;;;;;;4944404;28;20596;-83
2022/07/08 09:22:10;;;;;;;6.03;3.70;;;39.00;33.30;;;;;;4964755;28;20031;-83
2022/07/08 09:24:38;;;;;;;8.00;4.95;;;39.00;33.20;;;;;;4959299;28;20134;-84
2022/07/08 09:27:08;;;;;;;6.93;4.28;;;39.40;32.40;;;;;;4959370;28;20453;-84
2022/07/08 09:29:34;;;;;;;8.63;4.50;;;38.50;32.50;;;;;;4956786;28;20118;-84
2022/07/08 09:32:15;;;;;;;6.32;4.97;;;37.10;32.30;;;;;;4945754;28;20033;-84
2022/07/08 09:34:42;;;;;;;9.07;4.70;;;37.80;33.70;;;;;;4958321;28;20042;-84
2022/07/08 09:37:15;;;;;;;6.47;4.68;;;38.40;36.70;;;;;;4938285;28;20039;-84
2022/07/08 09:39:42;;;;;;;6.32;3.97;;;37.70;32.90;;;;;;4598157;28;10000576;-85
2022/07/08 09:42:09;;;;;;;7.35;4.57;;;37.40;37.80;;;;;;4961646;28;20026;-84
2022/07/08 09:44:36;;;;;;;6.00;4.10;;;37.40;34.20;;;;;;4960403;28;20030;-84
2022/07/08 09:47:11;;;;;;;5.80;3.97;;;38.00;34.40;;;;;;4963840;28;20382;-85
2022/07/08 09:49:41;;;;;;;7.45;4.60;;;36.30;34.50;;;;;;4944798;28;20446;-85
2022/07/08 09:52:08;;;;;;;6.00;4.03;;;36.80;37.20;;;;;;4961039;28;20537;-84
2022/07/08 09:54:33;;;;;;;6.80;4.18;;;36.80;34.80;;;;;;4959414;28;20299;-85
2022/07/08 09:57:11;;;;;;;7.57;5.00;;;36.20;34.50;;;;;;4955069;28;20034;-85
2022/07/08 09:59:37;;;;;;;6.68;4.00;;;36.20;35.10;;;;;;4961029;28;20081;-84
2022/07/08 10:02:04;;;;;;;7.00;4.20;;;35.80;37.70;;;;;;4962285;28;20078;-85
2022/07/08 10:04:30;;;;;;;6.60;4.85;;;36.20;38.40;;;;;;4941653;28;20039;-84
2022/07/08 10:06:57;;;;;;;4.53;3.80;;;36.90;36.80;;;;;;4960514;28;20019;-84
2022/07/08 10:09:25;;;;;;;6.90;3.92;;;37.40;35.70;;;;;;4958544;28;20418;-85
2022/07/08 10:11:52;;;;;;;8.35;4.55;;;36.70;37.70;;;;;;4948529;28;20573;-85
2022/07/08 10:14:19;;;;;;;4.22;3.72;;;36.90;35.60;;;;;;4952811;28;20150;-85
2022/07/08 10:16:47;;;;;;;4.55;4.07;;;36.60;35.20;;;;;;4952260;28;20027;-84
2022/07/08 10:19:27;;;;;;;6.28;3.80;;;35.90;34.70;;;;;;4951121;28;20035;-84
2022/07/08 10:21:55;;;;;;;5.75;3.78;;;36.30;36.20;;;;;;4951266;28;20394;-84
2022/07/08 10:24:25;;;;;;;7.35;4.50;;;36.10;38.40;;;;;;4950670;28;20129;-84
2022/07/08 10:26:51;;;;;;;7.82;3.63;;;36.20;37.00;;;;;;4954265;28;20031;-83
2022/07/08 10:29:17;;;;;;;8.57;3.53;;;35.60;39.80;;;;;;4954152;28;20075;-84
2022/07/08 10:31:53;;;;;;;6.05;4.28;;;36.90;38.10;;;;;;4954355;28;20513;-84
2022/07/08 10:34:22;;;;;;;4.00;3.58;;;35.70;35.00;;;;;;4954471;28;20033;-83
2022/07/08 10:36:50;;;;;;;5.75;3.83;;;35.70;37.50;;;;;;4950786;28;20439;-83
2022/07/08 10:39:25;;;;;;;6.30;3.40;;;35.40;41.50;;;;;;4949451;28;20034;-83
2022/07/08 10:42:02;;;;;;;4.93;3.30;;;35.60;35.90;;;;;;4953917;28;20030;-82
2022/07/08 10:44:44;;;;;;;4.50;3.42;;;35.80;40.20;;;;;;4936174;28;20027;-83
2022/07/08 10:47:23;;;;;;;6.03;3.55;;;35.40;40.30;;;;;;4953546;28;20280;-83
2022/07/08 10:49:50;;;;;;;4.88;3.83;;;35.10;39.50;;;;;;4951689;28;20401;-83
2022/07/08 10:52:21;;;;;;;6.82;3.63;;;35.40;38.40;;;;;;4949556;28;20038;-83
2022/07/08 10:54:47;;;;;;;6.88;3.05;;;35.70;37.20;;;;;;4946502;28;20426;-83
2022/07/08 10:57:17;;;;;;;7.20;3.45;;;36.00;40.30;;;;;;4949981;28;20070;-83
2022/07/08 11:00:10;;;;;;;5.22;3.47;;;36.30;40.00;;;;;;4950175;28;20085;-83
2022/07/08 11:02:45;;;;;;;4.45;3.33;;;36.20;39.20;;;;;;4940203;28;20110;-84
2022/07/08 11:05:36;;;;;;;5.82;4.22;;;36.30;39.20;;;;;;4957877;28;20035;-83
2022/07/08 11:08:20;;;;;;;5.63;4.28;;;36.20;39.40;;;;;;4941350;28;20034;-83
2022/07/08 11:10:51;;;;;;;6.28;3.78;;;35.40;37.50;;;;;;4947151;28;20034;-83
2022/07/08 11:13:22;;;;;;;4.70;3.45;;;35.20;37.90;;;;;;4939651;28;20034;-83
2022/07/08 11:15:48;;;;;;;3.70;3.40;;;35.30;40.70;;;;;;4954535;28;20594;-83
2022/07/08 11:18:25;;;;;;;7.60;4.93;;;35.70;41.10;;;;;;4944053;28;20124;-84
2022/07/08 11:20:58;;;;;;;8.00;5.57;;;35.00;36.80;;;;;;4955304;28;20086;-83
2022/07/08 11:23:24;;;;;;;3.80;3.22;;;34.80;36.90;;;;;;4953929;28;20026;-82
2022/07/08 11:25:55;;;;;;;7.50;4.20;;;35.00;40.90;;;;;;4960411;28;20395;-82
2022/07/08 11:28:21;;;;;;;9.38;6.78;;;34.70;36.20;;;;;;4954405;28;20039;-81
2022/07/08 11:30:47;;;;;;;3.53;3.22;;;34.90;38.20;;;;;;4957381;28;20038;-81
2022/07/08 11:33:13;;;;;;;9.02;4.10;;;34.80;40.90;;;;;;4962440;28;20038;-81
2022/07/08 11:35:39;;;;;;;4.68;3.95;;;34.40;41.70;;;;;;4960031;28;20096;-81
2022/07/08 11:38:04;;;;;;;4.68;4.05;;;34.30;43.50;;;;;;4962567;28;20482;-80
2022/07/08 11:40:41;;;;;;;6.00;3.88;;;33.80;40.30;;;;;;4957530;28;20069;-80
2022/07/08 11:43:13;;;;;;;7.60;3.83;;;33.30;44.30;;;;;;4947105;28;20043;-80
2022/07/08 11:45:38;;;;;;;4.22;3.42;;;32.60;45.60;;;;;;4959552;28;20042;-80
2022/07/08 11:48:05;;;;;;;4.65;3.20;;;32.50;45.40;;;;;;4938852;28;20116;-80
2022/07/08 11:50:31;;;;;;;5.57;3.97;;;32.60;47.60;;;;;;4957179;28;20027;-80
2022/07/08 11:52:57;;;;;;;4.10;3.65;;;31.80;44.80;;;;;;4954373;28;20030;-81
2022/07/08 11:55:22;;;;;;;3.97;3.58;;;32.00;46.70;;;;;;4958236;28;20530;-80
2022/07/08 11:57:48;;;;;;;4.47;3.08;;;31.60;45.40;;;;;;4954581;28;20106;-80
2022/07/08 12:00:14;;;;;;;3.97;3.67;;;31.70;49.30;;;;;;4959910;28;20038;-81
2022/07/08 12:02:40;;;;;;;4.53;3.20;;;31.60;49.70;;;;;;4954561;28;20467;-81
2022/07/08 12:05:10;;;;;;;3.03;2.78;;;31.70;47.10;;;;;;4956064;28;20593;-80
2022/07/08 12:07:37;;;;;;;3.25;2.53;;;31.80;47.80;;;;;;4959465;28;20617;-80
2022/07/08 12:10:05;;;;;;;3.95;2.60;;;31.60;47.70;;;;;;4940021;28;20038;-81
2022/07/08 12:12:35;;;;;;;2.70;2.42;;;31.40;51.90;;;;;;4957357;28;20030;-80
2022/07/08 12:15:11;;;;;;;2.70;2.50;;;31.40;48.80;;;;;;4955980;28;20039;-83
2022/07/08 12:17:37;;;;;;;3.13;2.53;;;31.30;50.20;;;;;;4946369;28;21313;-84
2022/07/08 12:20:03;;;;;;;2.63;2.42;;;31.30;51.10;;;;;;4961173;28;20038;-83
2022/07/08 12:22:47;;;;;;;2.25;2.15;;;31.30;50.60;;;;;;4615323;28;9999976;-83
2022/07/08 12:25:14;;;;;;;1.85;1.73;;;31.10;48.30;;;;;;4959246;28;20031;-83
2022/07/08 12:27:40;;;;;;;3.28;2.00;;;31.10;51.00;;;;;;4959609;28;20019;-83
2022/07/08 12:30:07;;;;;;;3.65;2.03;;;31.10;43.30;;;;;;4958069;28;20035;-84
2022/07/08 12:32:41;;;;;;;2.45;2.05;;;31.00;49.00;;;;;;4953272;28;20495;-83
2022/07/08 12:35:08;;;;;;;2.65;2.45;;;31.00;49.30;;;;;;4943761;28;20042;-83
2022/07/08 12:37:34;;;;;;;2.45;2.20;;;31.00;46.60;;;;;;4955589;28;20188;-81
2022/07/08 12:40:39;;;;;;;3.00;2.03;;;30.60;43.70;;;;;;4958522;28;20033;-81
2022/07/08 12:43:07;;;;;;;3.13;2.08;;;30.70;46.70;;;;;;4936751;28;20047;-81